sensor_id;sensor_type;location;lat;lon;timestamp;temperature;humidity
7936;DHT22;4013;49.744;8.118;2023-04-28T00:01:44;12.40;99.90
7936;DHT22;4013;49.744;8.118;2023-04-28T00:04:11;12.30;99.90
7936;DHT22;4013;49.744;8.118;2023-04-28T00:06:38;12.40;99.90
7936;DHT22;4013;49.744;8.118;2023-04-28T00:09:05;12.40;99.90
7936;DHT22;4013;49.744;8.118;2023-04-28T00:11:35;12.30;99.90
7936;DHT22;4013;49.744;8.118;2023-04-28T00:14:04;12.20;99.90
7936;DHT22;4013;49.744;8.118;2023-04-28T00:16:31;12.20;99.90
7936;DHT22;4013;49.744;8.118;2023-04-28T00:18:58;12.10;99.90
7936;DHT22;4013;49.744;8.118;2023-04-28T00:21:25;12.00;99.90
7936;DHT22;4013;49.744;8.118;2023-04-28T00:23:53;12.00;99.90
7936;DHT22;4013;49.744;8.118;2023-04-28T00:26:20;12.00;99.90
7936;DHT22;4013;49.744;8.118;2023-04-28T00:28:47;12.10;99.90
7936;DHT22;4013;49.744;8.118;2023-04-28T00:31:15;12.10;99.90
7936;DHT22;4013;49.744;8.118;2023-04-28T00:33:42;12.10;99.90
7936;DHT22;4013;49.744;8.118;2023-04-28T00:36:10;12.00;99.90
7936;DHT22;4013;49.744;8.118;2023-04-28T00:38:37;12.00;99.90
7936;DHT22;4013;49.744;8.118;2023-04-28T00:41:04;11.90;99.90
7936;DHT22;4013;49.744;8.118;2023-04-28T00:43:42;11.90;99.90
7936;DHT22;4013;49.744;8.118;2023-04-28T00:46:09;12.00;99.90
7936;DHT22;4013;49.744;8.118;2023-04-28T00:48:38;11.90;99.90
7936;DHT22;4013;49.744;8.118;2023-04-28T00:51:05;12.00;99.90
7936;DHT22;4013;49.744;8.118;2023-04-28T00:53:33;11.90;99.90
7936;DHT22;4013;49.744;8.118;2023-04-28T00:56:00;11.90;99.90
7936;DHT22;4013;49.744;8.118;2023-04-28T00:58:28;11.90;99.90
7936;DHT22;4013;49.744;8.118;2023-04-28T01:01:02;11.80;99.90
7936;DHT22;4013;49.744;8.118;2023-04-28T01:03:29;11.80;99.90
7936;DHT22;4013;49.744;8.118;2023-04-28T01:05:57;11.80;99.90
7936;DHT22;4013;49.744;8.118;2023-04-28T01:08:28;11.80;99.90
7936;DHT22;4013;49.744;8.118;2023-04-28T01:10:55;11.90;99.90
7936;DHT22;4013;49.744;8.118;2023-04-28T01:13:22;11.90;99.90
7936;DHT22;4013;49.744;8.118;2023-04-28T01:15:49;11.90;99.90
7936;DHT22;4013;49.744;8.118;2023-04-28T01:18:16;11.80;99.90
7936;DHT22;4013;49.744;8.118;2023-04-28T01:20:43;11.90;99.90
7936;DHT22;4013;49.744;8.118;2023-04-28T01:23:12;11.80;99.90
7936;DHT22;4013;49.744;8.118;2023-04-28T01:25:41;11.60;99.90
7936;DHT22;4013;49.744;8.118;2023-04-28T01:28:09;11.60;99.90
7936;DHT22;4013;49.744;8.118;2023-04-28T01:30:36;11.70;99.90
7936;DHT22;4013;49.744;8.118;2023-04-28T01:33:03;11.80;99.90
7936;DHT22;4013;49.744;8.118;2023-04-28T01:35:30;11.90;99.90
7936;DHT22;4013;49.744;8.118;2023-04-28T01:37:57;11.80;99.90
7936;DHT22;4013;49.744;8.118;2023-04-28T01:40:24;11.90;99.90
7936;DHT22;4013;49.744;8.118;2023-04-28T01:42:53;11.90;99.90
7936;DHT22;4013;49.744;8.118;2023-04-28T01:45:19;11.90;99.90
7936;DHT22;4013;49.744;8.118;2023-04-28T01:47:46;12.00;99.90
7936;DHT22;4013;49.744;8.118;2023-04-28T01:50:13;12.10;99.90
7936;DHT22;4013;49.744;8.118;2023-04-28T01:52:40;12.00;99.90
7936;DHT22;4013;49.744;8.118;2023-04-28T01:55:08;12.10;99.90
7936;DHT22;4013;49.744;8.118;2023-04-28T01:57:35;12.00;99.90
7936;DHT22;4013;49.744;8.118;2023-04-28T02:00:04;12.10;99.90
7936;DHT22;4013;49.744;8.118;2023-04-28T02:02:31;12.10;99.90
7936;DHT22;4013;49.744;8.118;2023-04-28T02:04:58;12.10;99.90
7936;DHT22;4013;49.744;8.118;2023-04-28T02:07:25;12.10;99.90
7936;DHT22;4013;49.744;8.118;2023-04-28T02:09:52;12.10;99.90
7936;DHT22;4013;49.744;8.118;2023-04-28T02:12:19;12.10;99.90
7936;DHT22;4013;49.744;8.118;2023-04-28T02:14:45;12.10;99.90
7936;DHT22;4013;49.744;8.118;2023-04-28T02:17:14;12.00;99.90
7936;DHT22;4013;49.744;8.118;2023-04-28T02:19:41;12.00;99.90
7936;DHT22;4013;49.744;8.118;2023-04-28T02:22:08;12.00;99.90
7936;DHT22;4013;49.744;8.118;2023-04-28T02:24:35;12.00;99.90
7936;DHT22;4013;49.744;8.118;2023-04-28T02:27:03;12.00;99.90
7936;DHT22;4013;49.744;8.118;2023-04-28T02:29:30;12.10;99.90
7936;DHT22;4013;49.744;8.118;2023-04-28T02:31:57;12.00;99.90
7936;DHT22;4013;49.744;8.118;2023-04-28T02:34:25;12.00;99.90
7936;DHT22;4013;49.744;8.118;2023-04-28T02:36:52;12.00;99.90
7936;DHT22;4013;49.744;8.118;2023-04-28T02:39:19;12.10;99.90
7936;DHT22;4013;49.744;8.118;2023-04-28T02:41:49;12.00;99.90
7936;DHT22;4013;49.744;8.118;2023-04-28T02:44:17;12.00;99.90
7936;DHT22;4013;49.744;8.118;2023-04-28T02:46:44;12.00;99.90
7936;DHT22;4013;49.744;8.118;2023-04-28T02:49:11;12.00;99.90
7936;DHT22;4013;49.744;8.118;2023-04-28T02:51:39;12.00;99.90
7936;DHT22;4013;49.744;8.118;2023-04-28T02:54:06;11.90;99.90
7936;DHT22;4013;49.744;8.118;2023-04-28T02:56:33;11.80;99.90
7936;DHT22;4013;49.744;8.118;2023-04-28T02:59:01;11.70;99.90
7936;DHT22;4013;49.744;8.118;2023-04-28T03:01:28;11.70;99.90
7936;DHT22;4013;49.744;8.118;2023-04-28T03:03:55;11.60;99.90
7936;DHT22;4013;49.744;8.118;2023-04-28T03:06:22;11.70;99.90
7936;DHT22;4013;49.744;8.118;2023-04-28T03:08:50;11.70;99.90
7936;DHT22;4013;49.744;8.118;2023-04-28T03:11:17;11.80;99.90
7936;DHT22;4013;49.744;8.118;2023-04-28T03:13:44;11.80;99.90
7936;DHT22;4013;49.744;8.118;2023-04-28T03:16:11;11.80;99.90
7936;DHT22;4013;49.744;8.118;2023-04-28T03:18:38;11.90;99.90
7936;DHT22;4013;49.744;8.118;2023-04-28T03:21:05;11.80;99.90
7936;DHT22;4013;49.744;8.118;2023-04-28T03:23:32;11.70;99.90
7936;DHT22;4013;49.744;8.118;2023-04-28T03:26:00;11.60;99.90
7936;DHT22;4013;49.744;8.118;2023-04-28T03:28:27;11.70;99.90
7936;DHT22;4013;49.744;8.118;2023-04-28T03:30:54;11.80;99.90
7936;DHT22;4013;49.744;8.118;2023-04-28T03:33:22;11.70;99.90
7936;DHT22;4013;49.744;8.118;2023-04-28T03:35:49;11.80;99.90
7936;DHT22;4013;49.744;8.118;2023-04-28T03:38:16;11.80;99.90
7936;DHT22;4013;49.744;8.118;2023-04-28T03:40:43;11.80;99.90
7936;DHT22;4013;49.744;8.118;2023-04-28T03:43:12;11.90;99.90
7936;DHT22;4013;49.744;8.118;2023-04-28T03:45:39;11.90;99.90
7936;DHT22;4013;49.744;8.118;2023-04-28T03:48:07;11.90;99.90
7936;DHT22;4013;49.744;8.118;2023-04-28T03:50:34;11.90;99.90
7936;DHT22;4013;49.744;8.118;2023-04-28T03:53:01;11.90;99.90
7936;DHT22;4013;49.744;8.118;2023-04-28T03:55:28;11.90;99.90
7936;DHT22;4013;49.744;8.118;2023-04-28T03:57:55;11.90;99.90
7936;DHT22;4013;49.744;8.118;2023-04-28T04:00:23;12.00;99.90
7936;DHT22;4013;49.744;8.118;2023-04-28T04:02:50;11.90;99.90
7936;DHT22;4013;49.744;8.118;2023-04-28T04:05:17;11.80;99.90
7936;DHT22;4013;49.744;8.118;2023-04-28T04:07:44;11.80;99.90
7936;DHT22;4013;49.744;8.118;2023-04-28T04:10:11;11.80;99.90
7936;DHT22;4013;49.744;8.118;2023-04-28T04:12:38;11.80;99.90
7936;DHT22;4013;49.744;8.118;2023-04-28T04:15:06;11.70;99.90
7936;DHT22;4013;49.744;8.118;2023-04-28T04:17:34;11.70;99.90
7936;DHT22;4013;49.744;8.118;2023-04-28T04:20:01;11.60;99.90
7936;DHT22;4013;49.744;8.118;2023-04-28T04:22:28;11.70;99.90
7936;DHT22;4013;49.744;8.118;2023-04-28T04:24:55;11.70;99.90
7936;DHT22;4013;49.744;8.118;2023-04-28T04:27:22;11.60;99.90
7936;DHT22;4013;49.744;8.118;2023-04-28T04:29:49;11.70;99.90
7936;DHT22;4013;49.744;8.118;2023-04-28T04:32:16;11.60;99.90
7936;DHT22;4013;49.744;8.118;2023-04-28T04:34:44;11.60;99.90
7936;DHT22;4013;49.744;8.118;2023-04-28T04:37:11;11.60;99.90
7936;DHT22;4013;49.744;8.118;2023-04-28T04:39:38;11.60;99.90
7936;DHT22;4013;49.744;8.118;2023-04-28T04:42:05;11.50;99.90
7936;DHT22;4013;49.744;8.118;2023-04-28T04:44:32;11.50;99.90
7936;DHT22;4013;49.744;8.118;2023-04-28T04:46:59;11.50;99.90
7936;DHT22;4013;49.744;8.118;2023-04-28T04:49:27;11.50;99.90
7936;DHT22;4013;49.744;8.118;2023-04-28T04:51:55;11.50;99.90
7936;DHT22;4013;49.744;8.118;2023-04-28T04:54:22;11.50;99.90
7936;DHT22;4013;49.744;8.118;2023-04-28T04:56:49;11.50;99.90
7936;DHT22;4013;49.744;8.118;2023-04-28T04:59:17;11.50;99.90
7936;DHT22;4013;49.744;8.118;2023-04-28T05:01:44;11.50;99.90
7936;DHT22;4013;49.744;8.118;2023-04-28T05:04:11;11.50;99.90
7936;DHT22;4013;49.744;8.118;2023-04-28T05:06:37;11.50;99.90
7936;DHT22;4013;49.744;8.118;2023-04-28T05:09:07;11.60;99.90
7936;DHT22;4013;49.744;8.118;2023-04-28T05:11:34;11.60;99.90
7936;DHT22;4013;49.744;8.118;2023-04-28T05:14:01;11.60;99.90
7936;DHT22;4013;49.744;8.118;2023-04-28T05:16:27;11.70;99.90
7936;DHT22;4013;49.744;8.118;2023-04-28T05:18:55;11.70;99.90
7936;DHT22;4013;49.744;8.118;2023-04-28T05:21:21;11.60;99.90
7936;DHT22;4013;49.744;8.118;2023-04-28T05:23:48;11.50;99.90
7936;DHT22;4013;49.744;8.118;2023-04-28T05:26:17;11.50;99.90
7936;DHT22;4013;49.744;8.118;2023-04-28T05:28:44;11.50;99.90
7936;DHT22;4013;49.744;8.118;2023-04-28T05:31:11;11.50;99.90
7936;DHT22;4013;49.744;8.118;2023-04-28T05:33:38;11.50;99.90
7936;DHT22;4013;49.744;8.118;2023-04-28T05:36:05;11.60;99.90
7936;DHT22;4013;49.744;8.118;2023-04-28T05:38:33;11.60;99.90
7936;DHT22;4013;49.744;8.118;2023-04-28T05:41:00;11.60;99.90
7936;DHT22;4013;49.744;8.118;2023-04-28T05:43:29;11.70;99.90
7936;DHT22;4013;49.744;8.118;2023-04-28T05:45:56;11.70;99.90
7936;DHT22;4013;49.744;8.118;2023-04-28T05:48:23;11.70;99.90
7936;DHT22;4013;49.744;8.118;2023-04-28T05:50:50;11.60;99.90
7936;DHT22;4013;49.744;8.118;2023-04-28T05:53:16;11.60;99.90
7936;DHT22;4013;49.744;8.118;2023-04-28T05:55:43;11.60;99.90
7936;DHT22;4013;49.744;8.118;2023-04-28T05:58:10;11.60;99.90
7936;DHT22;4013;49.744;8.118;2023-04-28T06:00:39;11.60;99.90
7936;DHT22;4013;49.744;8.118;2023-04-28T06:03:06;11.60;99.90
7936;DHT22;4013;49.744;8.118;2023-04-28T06:05:35;11.50;99.90
7936;DHT22;4013;49.744;8.118;2023-04-28T06:08:03;11.50;99.90
7936;DHT22;4013;49.744;8.118;2023-04-28T06:10:30;11.50;99.90
7936;DHT22;4013;49.744;8.118;2023-04-28T06:12:57;11.50;99.90
7936;DHT22;4013;49.744;8.118;2023-04-28T06:15:23;11.50;99.90
7936;DHT22;4013;49.744;8.118;2023-04-28T06:17:52;11.40;99.90
7936;DHT22;4013;49.744;8.118;2023-04-28T06:20:20;11.50;99.90
7936;DHT22;4013;49.744;8.118;2023-04-28T06:22:50;11.50;99.90
7936;DHT22;4013;49.744;8.118;2023-04-28T06:25:20;11.50;99.90
7936;DHT22;4013;49.744;8.118;2023-04-28T06:27:47;11.60;99.90
7936;DHT22;4013;49.744;8.118;2023-04-28T06:30:16;11.60;99.90
7936;DHT22;4013;49.744;8.118;2023-04-28T06:32:45;11.70;99.90
7936;DHT22;4013;49.744;8.118;2023-04-28T06:35:14;11.70;99.90
7936;DHT22;4013;49.744;8.118;2023-04-28T06:37:41;11.60;99.90
7936;DHT22;4013;49.744;8.118;2023-04-28T06:40:09;11.50;99.90
7936;DHT22;4013;49.744;8.118;2023-04-28T06:42:36;11.60;99.90
7936;DHT22;4013;49.744;8.118;2023-04-28T06:45:04;11.50;99.90
7936;DHT22;4013;49.744;8.118;2023-04-28T06:47:31;11.50;99.90
7936;DHT22;4013;49.744;8.118;2023-04-28T06:49:58;11.50;99.90
7936;DHT22;4013;49.744;8.118;2023-04-28T06:52:27;11.50;99.90
7936;DHT22;4013;49.744;8.118;2023-04-28T06:54:55;11.40;99.90
7936;DHT22;4013;49.744;8.118;2023-04-28T06:57:22;11.40;99.90
7936;DHT22;4013;49.744;8.118;2023-04-28T06:59:49;11.40;99.90
7936;DHT22;4013;49.744;8.118;2023-04-28T07:02:16;11.50;99.90
7936;DHT22;4013;49.744;8.118;2023-04-28T07:04:43;11.50;99.90
7936;DHT22;4013;49.744;8.118;2023-04-28T07:07:10;11.50;99.90
7936;DHT22;4013;49.744;8.118;2023-04-28T07:09:39;11.50;99.90
7936;DHT22;4013;49.744;8.118;2023-04-28T07:12:06;11.40;99.90
7936;DHT22;4013;49.744;8.118;2023-04-28T07:14:33;11.50;99.90
7936;DHT22;4013;49.744;8.118;2023-04-28T07:17:00;11.50;99.90
7936;DHT22;4013;49.744;8.118;2023-04-28T07:19:27;11.40;99.90
7936;DHT22;4013;49.744;8.118;2023-04-28T07:21:54;11.40;99.90
7936;DHT22;4013;49.744;8.118;2023-04-28T07:24:21;11.50;99.90
7936;DHT22;4013;49.744;8.118;2023-04-28T07:26:50;11.60;99.90
7936;DHT22;4013;49.744;8.118;2023-04-28T07:29:17;11.50;99.90
7936;DHT22;4013;49.744;8.118;2023-04-28T07:31:45;11.50;99.90
7936;DHT22;4013;49.744;8.118;2023-04-28T07:34:12;11.60;99.90
7936;DHT22;4013;49.744;8.118;2023-04-28T07:36:39;11.60;99.90
7936;DHT22;4013;49.744;8.118;2023-04-28T07:39:06;11.70;99.90
7936;DHT22;4013;49.744;8.118;2023-04-28T07:41:35;11.70;99.90
7936;DHT22;4013;49.744;8.118;2023-04-28T07:44:04;11.80;99.90
7936;DHT22;4013;49.744;8.118;2023-04-28T07:46:32;11.90;99.90
7936;DHT22;4013;49.744;8.118;2023-04-28T07:49:00;12.00;99.90
7936;DHT22;4013;49.744;8.118;2023-04-28T07:51:27;12.00;99.90
7936;DHT22;4013;49.744;8.118;2023-04-28T07:53:55;12.20;99.90
7936;DHT22;4013;49.744;8.118;2023-04-28T07:56:23;12.20;99.90
7936;DHT22;4013;49.744;8.118;2023-04-28T07:58:50;12.20;99.90
7936;DHT22;4013;49.744;8.118;2023-04-28T08:01:19;12.20;99.90
7936;DHT22;4013;49.744;8.118;2023-04-28T08:03:46;12.20;99.90
7936;DHT22;4013;49.744;8.118;2023-04-28T08:06:13;12.30;99.90
7936;DHT22;4013;49.744;8.118;2023-04-28T08:08:40;12.30;99.90
7936;DHT22;4013;49.744;8.118;2023-04-28T08:11:07;12.30;99.90
7936;DHT22;4013;49.744;8.118;2023-04-28T08:13:34;12.40;99.90
7936;DHT22;4013;49.744;8.118;2023-04-28T08:16:01;12.40;99.90
7936;DHT22;4013;49.744;8.118;2023-04-28T08:18:30;12.60;99.90
7936;DHT22;4013;49.744;8.118;2023-04-28T08:20:57;12.60;99.90
7936;DHT22;4013;49.744;8.118;2023-04-28T08:23:24;12.60;99.90
7936;DHT22;4013;49.744;8.118;2023-04-28T08:25:53;12.60;99.90
7936;DHT22;4013;49.744;8.118;2023-04-28T08:28:20;12.60;99.90
7936;DHT22;4013;49.744;8.118;2023-04-28T08:30:47;12.70;99.90
7936;DHT22;4013;49.744;8.118;2023-04-28T08:33:14;12.80;99.90
7936;DHT22;4013;49.744;8.118;2023-04-28T08:35:42;12.80;99.90
7936;DHT22;4013;49.744;8.118;2023-04-28T08:38:09;12.70;99.90
7936;DHT22;4013;49.744;8.118;2023-04-28T08:40:38;12.70;99.90
7936;DHT22;4013;49.744;8.118;2023-04-28T08:43:07;12.70;99.90
7936;DHT22;4013;49.744;8.118;2023-04-28T08:45:40;12.80;99.90
7936;DHT22;4013;49.744;8.118;2023-04-28T08:48:14;12.90;99.90
7936;DHT22;4013;49.744;8.118;2023-04-28T08:50:48;13.00;99.90
7936;DHT22;4013;49.744;8.118;2023-04-28T08:53:20;13.00;99.90
7936;DHT22;4013;49.744;8.118;2023-04-28T08:55:50;13.10;99.90
7936;DHT22;4013;49.744;8.118;2023-04-28T08:58:18;13.00;99.90
7936;DHT22;4013;49.744;8.118;2023-04-28T09:00:45;13.00;99.90
7936;DHT22;4013;49.744;8.118;2023-04-28T09:03:12;13.10;99.90
7936;DHT22;4013;49.744;8.118;2023-04-28T09:05:39;13.30;99.90
7936;DHT22;4013;49.744;8.118;2023-04-28T09:08:08;13.40;99.90
7936;DHT22;4013;49.744;8.118;2023-04-28T09:10:36;13.20;99.90
7936;DHT22;4013;49.744;8.118;2023-04-28T09:13:03;13.20;99.90
7936;DHT22;4013;49.744;8.118;2023-04-28T09:15:32;13.20;99.90
7936;DHT22;4013;49.744;8.118;2023-04-28T09:18:00;13.30;99.90
7936;DHT22;4013;49.744;8.118;2023-04-28T09:20:29;13.20;99.90
7936;DHT22;4013;49.744;8.118;2023-04-28T09:23:13;13.10;99.90
7936;DHT22;4013;49.744;8.118;2023-04-28T09:25:45;13.20;99.90
7936;DHT22;4013;49.744;8.118;2023-04-28T09:28:21;13.10;99.90
7936;DHT22;4013;49.744;8.118;2023-04-28T09:30:48;13.10;99.90
7936;DHT22;4013;49.744;8.118;2023-04-28T09:33:15;13.10;99.90
7936;DHT22;4013;49.744;8.118;2023-04-28T09:35:42;13.10;99.90
7936;DHT22;4013;49.744;8.118;2023-04-28T09:38:12;13.20;99.90
7936;DHT22;4013;49.744;8.118;2023-04-28T09:40:49;13.20;99.90
7936;DHT22;4013;49.744;8.118;2023-04-28T09:43:26;13.20;99.90
7936;DHT22;4013;49.744;8.118;2023-04-28T09:45:54;13.10;99.90
7936;DHT22;4013;49.744;8.118;2023-04-28T09:48:32;13.20;99.90
7936;DHT22;4013;49.744;8.118;2023-04-28T09:51:00;13.30;99.90
7936;DHT22;4013;49.744;8.118;2023-04-28T09:53:29;13.10;99.90
7936;DHT22;4013;49.744;8.118;2023-04-28T09:55:58;13.20;99.90
7936;DHT22;4013;49.744;8.118;2023-04-28T09:58:27;13.20;99.90
7936;DHT22;4013;49.744;8.118;2023-04-28T10:00:55;13.30;99.90
7936;DHT22;4013;49.744;8.118;2023-04-28T10:03:23;13.40;99.90
7936;DHT22;4013;49.744;8.118;2023-04-28T10:05:51;13.40;99.90
7936;DHT22;4013;49.744;8.118;2023-04-28T10:08:19;13.50;99.90
7936;DHT22;4013;49.744;8.118;2023-04-28T10:10:48;13.60;99.90
7936;DHT22;4013;49.744;8.118;2023-04-28T10:13:18;13.60;99.90
7936;DHT22;4013;49.744;8.118;2023-04-28T10:15:46;13.50;99.90
7936;DHT22;4013;49.744;8.118;2023-04-28T10:18:13;13.60;99.90
7936;DHT22;4013;49.744;8.118;2023-04-28T10:20:43;13.70;99.90
7936;DHT22;4013;49.744;8.118;2023-04-28T10:23:30;13.70;99.90
7936;DHT22;4013;49.744;8.118;2023-04-28T10:26:02;13.80;99.90
7936;DHT22;4013;49.744;8.118;2023-04-28T10:28:29;13.90;99.90
7936;DHT22;4013;49.744;8.118;2023-04-28T10:31:09;14.00;99.90
7936;DHT22;4013;49.744;8.118;2023-04-28T10:33:37;14.20;99.90
7936;DHT22;4013;49.744;8.118;2023-04-28T10:36:05;14.30;99.90
7936;DHT22;4013;49.744;8.118;2023-04-28T10:38:32;14.40;99.90
7936;DHT22;4013;49.744;8.118;2023-04-28T10:41:01;14.30;99.90
7936;DHT22;4013;49.744;8.118;2023-04-28T10:43:36;14.20;99.90
7936;DHT22;4013;49.744;8.118;2023-04-28T10:46:07;14.20;99.90
7936;DHT22;4013;49.744;8.118;2023-04-28T10:49:04;14.10;99.90
7936;DHT22;4013;49.744;8.118;2023-04-28T10:51:33;14.10;99.90
7936;DHT22;4013;49.744;8.118;2023-04-28T10:54:24;14.20;99.90
7936;DHT22;4013;49.744;8.118;2023-04-28T10:57:19;14.10;99.90
7936;DHT22;4013;49.744;8.118;2023-04-28T10:59:50;14.20;99.90
7936;DHT22;4013;49.744;8.118;2023-04-28T11:02:39;14.10;99.90
7936;DHT22;4013;49.744;8.118;2023-04-28T11:05:18;14.00;99.90
7936;DHT22;4013;49.744;8.118;2023-04-28T11:11:17;13.90;99.90
7936;DHT22;4013;49.744;8.118;2023-04-28T11:13:47;14.00;99.90
7936;DHT22;4013;49.744;8.118;2023-04-28T11:16:16;14.00;99.90
7936;DHT22;4013;49.744;8.118;2023-04-28T11:19:02;14.10;99.90
7936;DHT22;4013;49.744;8.118;2023-04-28T11:21:31;14.10;99.90
7936;DHT22;4013;49.744;8.118;2023-04-28T11:23:58;14.10;99.90
7936;DHT22;4013;49.744;8.118;2023-04-28T11:26:26;14.10;99.90
7936;DHT22;4013;49.744;8.118;2023-04-28T11:28:55;14.10;99.90
7936;DHT22;4013;49.744;8.118;2023-04-28T11:31:24;14.10;99.90
7936;DHT22;4013;49.744;8.118;2023-04-28T11:34:03;14.10;99.90
7936;DHT22;4013;49.744;8.118;2023-04-28T11:36:33;14.10;99.90
7936;DHT22;4013;49.744;8.118;2023-04-28T11:39:02;14.20;99.90
7936;DHT22;4013;49.744;8.118;2023-04-28T11:41:32;14.20;99.90
7936;DHT22;4013;49.744;8.118;2023-04-28T11:44:09;14.10;99.90
7936;DHT22;4013;49.744;8.118;2023-04-28T11:46:43;14.10;99.90
7936;DHT22;4013;49.744;8.118;2023-04-28T11:49:11;14.10;99.90
7936;DHT22;4013;49.744;8.118;2023-04-28T11:51:39;14.10;99.90
7936;DHT22;4013;49.744;8.118;2023-04-28T11:54:07;14.10;99.90
7936;DHT22;4013;49.744;8.118;2023-04-28T11:56:37;14.10;99.90
7936;DHT22;4013;49.744;8.118;2023-04-28T11:59:08;14.00;99.90
7936;DHT22;4013;49.744;8.118;2023-04-28T12:01:44;14.10;99.90
7936;DHT22;4013;49.744;8.118;2023-04-28T12:04:12;14.10;99.90
7936;DHT22;4013;49.744;8.118;2023-04-28T12:06:40;14.00;99.90
7936;DHT22;4013;49.744;8.118;2023-04-28T12:09:17;14.00;99.90
7936;DHT22;4013;49.744;8.118;2023-04-28T12:11:55;14.00;99.90
7936;DHT22;4013;49.744;8.118;2023-04-28T12:14:24;14.00;99.90
7936;DHT22;4013;49.744;8.118;2023-04-28T12:16:51;14.00;99.90
7936;DHT22;4013;49.744;8.118;2023-04-28T12:19:18;14.10;99.90
7936;DHT22;4013;49.744;8.118;2023-04-28T12:21:59;14.10;99.90
7936;DHT22;4013;49.744;8.118;2023-04-28T12:24:26;14.20;99.90
7936;DHT22;4013;49.744;8.118;2023-04-28T12:26:53;14.20;99.90
7936;DHT22;4013;49.744;8.118;2023-04-28T12:29:38;14.40;99.90
7936;DHT22;4013;49.744;8.118;2023-04-28T12:32:06;14.50;99.90
7936;DHT22;4013;49.744;8.118;2023-04-28T12:34:33;14.50;99.90
7936;DHT22;4013;49.744;8.118;2023-04-28T12:37:01;14.60;99.90
7936;DHT22;4013;49.744;8.118;2023-04-28T12:39:31;14.70;99.90
7936;DHT22;4013;49.744;8.118;2023-04-28T12:41:58;14.70;99.90
7936;DHT22;4013;49.744;8.118;2023-04-28T12:44:27;14.80;99.90
7936;DHT22;4013;49.744;8.118;2023-04-28T12:46:55;14.90;99.90
7936;DHT22;4013;49.744;8.118;2023-04-28T12:49:22;15.00;99.90
7936;DHT22;4013;49.744;8.118;2023-04-28T12:51:49;15.10;99.90
7936;DHT22;4013;49.744;8.118;2023-04-28T12:54:16;15.20;99.90
7936;DHT22;4013;49.744;8.118;2023-04-28T12:56:43;15.10;99.90
7936;DHT22;4013;49.744;8.118;2023-04-28T12:59:10;15.20;99.90
7936;DHT22;4013;49.744;8.118;2023-04-28T13:01:37;15.30;99.90
7936;DHT22;4013;49.744;8.118;2023-04-28T13:04:05;15.40;99.90
7936;DHT22;4013;49.744;8.118;2023-04-28T13:06:34;15.40;99.90
7936;DHT22;4013;49.744;8.118;2023-04-28T13:09:01;15.50;99.90
7936;DHT22;4013;49.744;8.118;2023-04-28T13:11:29;15.50;99.90
7936;DHT22;4013;49.744;8.118;2023-04-28T13:13:56;15.50;99.90
7936;DHT22;4013;49.744;8.118;2023-04-28T13:16:23;15.50;99.90
7936;DHT22;4013;49.744;8.118;2023-04-28T13:18:55;15.40;99.90
7936;DHT22;4013;49.744;8.118;2023-04-28T13:21:24;15.40;99.90
7936;DHT22;4013;49.744;8.118;2023-04-28T13:23:51;15.30;99.90
7936;DHT22;4013;49.744;8.118;2023-04-28T13:26:19;15.20;99.90
7936;DHT22;4013;49.744;8.118;2023-04-28T13:28:49;15.20;99.90
7936;DHT22;4013;49.744;8.118;2023-04-28T13:31:16;15.20;99.90
7936;DHT22;4013;49.744;8.118;2023-04-28T13:33:43;15.10;99.90
7936;DHT22;4013;49.744;8.118;2023-04-28T13:36:10;15.10;99.90
7936;DHT22;4013;49.744;8.118;2023-04-28T13:38:39;15.10;99.90
7936;DHT22;4013;49.744;8.118;2023-04-28T13:41:06;15.10;99.90
7936;DHT22;4013;49.744;8.118;2023-04-28T13:43:33;15.10;99.90
7936;DHT22;4013;49.744;8.118;2023-04-28T13:46:00;15.10;99.90
7936;DHT22;4013;49.744;8.118;2023-04-28T13:48:32;15.20;99.90
7936;DHT22;4013;49.744;8.118;2023-04-28T13:51:00;15.20;99.90
7936;DHT22;4013;49.744;8.118;2023-04-28T13:53:27;15.20;99.90
7936;DHT22;4013;49.744;8.118;2023-04-28T13:55:55;15.20;99.90
7936;DHT22;4013;49.744;8.118;2023-04-28T13:58:23;15.30;99.90
7936;DHT22;4013;49.744;8.118;2023-04-28T14:00:50;15.40;99.90
7936;DHT22;4013;49.744;8.118;2023-04-28T14:03:17;15.40;99.90
7936;DHT22;4013;49.744;8.118;2023-04-28T14:05:44;15.50;99.90
7936;DHT22;4013;49.744;8.118;2023-04-28T14:08:11;15.50;99.90
7936;DHT22;4013;49.744;8.118;2023-04-28T14:10:38;15.50;99.90
7936;DHT22;4013;49.744;8.118;2023-04-28T14:13:06;15.50;99.90
7936;DHT22;4013;49.744;8.118;2023-04-28T14:15:33;15.60;99.90
7936;DHT22;4013;49.744;8.118;2023-04-28T14:18:01;15.60;99.90
7936;DHT22;4013;49.744;8.118;2023-04-28T14:20:28;15.80;99.90
7936;DHT22;4013;49.744;8.118;2023-04-28T14:22:55;16.00;99.90
7936;DHT22;4013;49.744;8.118;2023-04-28T14:25:23;16.30;99.90
7936;DHT22;4013;49.744;8.118;2023-04-28T14:27:51;16.50;99.90
7936;DHT22;4013;49.744;8.118;2023-04-28T14:30:20;16.70;99.90
7936;DHT22;4013;49.744;8.118;2023-04-28T14:32:47;16.90;99.90
7936;DHT22;4013;49.744;8.118;2023-04-28T14:35:15;17.00;99.90
7936;DHT22;4013;49.744;8.118;2023-04-28T14:37:42;17.20;99.90
7936;DHT22;4013;49.744;8.118;2023-04-28T14:40:09;17.20;99.90
7936;DHT22;4013;49.744;8.118;2023-04-28T14:42:36;17.30;99.90
7936;DHT22;4013;49.744;8.118;2023-04-28T14:45:05;17.40;99.90
7936;DHT22;4013;49.744;8.118;2023-04-28T14:47:35;17.50;99.90
7936;DHT22;4013;49.744;8.118;2023-04-28T14:50:03;17.60;99.90
7936;DHT22;4013;49.744;8.118;2023-04-28T14:52:30;17.70;99.90
7936;DHT22;4013;49.744;8.118;2023-04-28T14:54:58;17.80;99.90
7936;DHT22;4013;49.744;8.118;2023-04-28T14:57:26;17.80;99.90
7936;DHT22;4013;49.744;8.118;2023-04-28T14:59:53;17.90;99.90
7936;DHT22;4013;49.744;8.118;2023-04-28T15:02:21;17.90;99.90
7936;DHT22;4013;49.744;8.118;2023-04-28T15:04:52;17.90;99.90
7936;DHT22;4013;49.744;8.118;2023-04-28T15:07:19;17.80;99.90
7936;DHT22;4013;49.744;8.118;2023-04-28T15:09:46;17.70;99.90
7936;DHT22;4013;49.744;8.118;2023-04-28T15:12:13;17.70;99.90
7936;DHT22;4013;49.744;8.118;2023-04-28T15:14:40;17.60;99.90
7936;DHT22;4013;49.744;8.118;2023-04-28T15:17:07;17.60;99.90
7936;DHT22;4013;49.744;8.118;2023-04-28T15:19:35;17.60;99.90
7936;DHT22;4013;49.744;8.118;2023-04-28T15:22:03;17.60;99.90
7936;DHT22;4013;49.744;8.118;2023-04-28T15:24:30;17.50;99.90
7936;DHT22;4013;49.744;8.118;2023-04-28T15:26:58;17.50;99.90
7936;DHT22;4013;49.744;8.118;2023-04-28T15:29:25;17.40;99.90
7936;DHT22;4013;49.744;8.118;2023-04-28T15:31:52;17.40;99.90
7936;DHT22;4013;49.744;8.118;2023-04-28T15:34:18;17.30;99.90
7936;DHT22;4013;49.744;8.118;2023-04-28T15:36:45;17.20;99.90
7936;DHT22;4013;49.744;8.118;2023-04-28T15:39:14;17.30;99.90
7936;DHT22;4013;49.744;8.118;2023-04-28T15:41:41;17.30;99.90
7936;DHT22;4013;49.744;8.118;2023-04-28T15:44:08;17.30;99.90
7936;DHT22;4013;49.744;8.118;2023-04-28T15:46:36;17.30;99.90
7936;DHT22;4013;49.744;8.118;2023-04-28T15:49:03;17.30;99.90
7936;DHT22;4013;49.744;8.118;2023-04-28T15:51:30;17.20;99.90
7936;DHT22;4013;49.744;8.118;2023-04-28T15:53:57;17.20;99.90
7936;DHT22;4013;49.744;8.118;2023-04-28T15:56:27;17.20;99.90
7936;DHT22;4013;49.744;8.118;2023-04-28T15:58:55;17.20;99.90
7936;DHT22;4013;49.744;8.118;2023-04-28T16:01:23;17.20;99.90
7936;DHT22;4013;49.744;8.118;2023-04-28T16:03:50;17.20;99.90
7936;DHT22;4013;49.744;8.118;2023-04-28T16:06:17;17.10;99.90
7936;DHT22;4013;49.744;8.118;2023-04-28T16:08:44;17.00;99.90
7936;DHT22;4013;49.744;8.118;2023-04-28T16:11:11;17.00;99.90
7936;DHT22;4013;49.744;8.118;2023-04-28T16:13:43;17.00;99.90